Time;durP1;ratioP1;P1;durP2;ratioP2;P2;SDS_P1;SDS_P2;PMS_P1;PMS_P2;Temp;Humidity;BMP_temperature;BMP_pressure;BME280_temperature;BME280_humidity;BME280_pressure;Samples;Min_cycle;Max_cycle;Signal;HPM_P1;HPM_P2
2021/07/05 00:02:08;;;;;;;3.70;1.55;;;;;;;;;;4993634;28;20565;-63
2021/07/05 00:04:34;;;;;;;3.33;1.67;;;;;;;;;;4992930;28;20125;-63
2021/07/05 00:07:00;;;;;;;2.33;1.67;;;;;;;;;;4992672;28;20422;-64
2021/07/05 00:09:25;;;;;;;11.68;3.33;;;;;;;;;;4989128;28;20539;-63
2021/07/05 00:11:51;;;;;;;4.82;2.10;;;;;;;;;;4990576;28;20448;-63
2021/07/05 00:14:16;;;;;;;4.68;1.63;;;;;;;;;;4990181;28;20497;-62
2021/07/05 00:16:42;;;;;;;3.70;1.90;;;;;;;;;;4988830;28;20566;-64
2021/07/05 00:19:07;;;;;;;4.53;2.30;;;;;;;;;;4988509;28;20780;-63
2021/07/05 00:21:33;;;;;;;3.22;1.80;;;;;;;;;;4988524;28;20034;-62
2021/07/05 00:24:00;;;;;;;8.07;2.10;;;;;;;;;;4987657;28;20050;-64
2021/07/05 00:26:25;;;;;;;3.00;1.95;;;;;;;;;;4989575;28;20039;-65
2021/07/05 00:28:51;;;;;;;8.88;2.25;;;;;;;;;;4989196;28;20041;-65
2021/07/05 00:31:16;;;;;;;5.03;2.20;;;;;;;;;;4990319;28;20034;-65
2021/07/05 00:33:42;;;;;;;4.95;2.17;;;;;;;;;;4987842;28;20127;-66
2021/07/05 00:36:08;;;;;;;10.80;2.42;;;;;;;;;;4987996;28;20497;-65
2021/07/05 00:38:33;;;;;;;4.38;2.30;;;;;;;;;;4990685;28;20058;-65
2021/07/05 00:40:59;;;;;;;3.67;1.88;;;;;;;;;;4998631;28;20092;-66
2021/07/05 00:43:25;;;;;;;4.25;1.98;;;;;;;;;;4995525;28;20030;-66
2021/07/05 00:45:50;;;;;;;5.22;2.42;;;;;;;;;;4995794;28;20042;-66
2021/07/05 00:48:16;;;;;;;5.38;2.05;;;;;;;;;;4994021;28;20038;-67
2021/07/05 00:50:41;;;;;;;5.35;2.40;;;;;;;;;;4988304;28;20027;-64
2021/07/05 00:53:07;;;;;;;5.25;2.00;;;;;;;;;;4989879;28;20068;-70
2021/07/05 00:55:33;;;;;;;5.28;2.30;;;;;;;;;;4988449;28;20451;-70
2021/07/05 00:57:59;;;;;;;7.40;2.50;;;;;;;;;;4987435;28;20394;-69
2021/07/05 01:00:26;;;;;;;5.72;2.35;;;;;;;;;;4986286;28;20034;-70
2021/07/05 01:02:53;;;;;;;5.60;2.00;;;;;;;;;;4987968;28;20117;-71
2021/07/05 01:05:19;;;;;;;6.40;2.28;;;;;;;;;;4987040;28;20037;-71
2021/07/05 01:07:46;;;;;;;5.95;1.92;;;;;;;;;;4986906;28;20038;-72
2021/07/05 01:10:14;;;;;;;6.22;2.30;;;;;;;;;;4988035;28;20013;-72
2021/07/05 01:12:40;;;;;;;6.05;2.22;;;;;;;;;;4989884;28;20022;-69
2021/07/05 01:15:08;;;;;;;7.80;3.20;;;;;;;;;;4987525;28;20501;-70
2021/07/05 01:17:33;;;;;;;4.53;2.10;;;;;;;;;;4989774;28;20475;-69
2021/07/05 01:19:59;;;;;;;8.63;2.20;;;;;;;;;;4990060;28;20068;-70
2021/07/05 01:22:24;;;;;;;7.25;2.13;;;;;;;;;;4988925;28;20069;-69
2021/07/05 01:24:50;;;;;;;4.13;1.77;;;;;;;;;;4995943;28;20520;-70
2021/07/05 01:27:17;;;;;;;3.47;2.10;;;;;;;;;;4980407;28;20038;-70
2021/07/05 01:29:42;;;;;;;6.40;1.58;;;;;;;;;;4992363;28;20111;-71
2021/07/05 01:32:09;;;;;;;6.72;1.70;;;;;;;;;;4989104;28;20489;-71
2021/07/05 01:34:36;;;;;;;3.38;1.63;;;;;;;;;;4986020;28;20050;-71
2021/07/05 01:37:03;;;;;;;3.55;1.48;;;;;;;;;;4991837;28;20030;-71
2021/07/05 01:39:29;;;;;;;2.08;1.50;;;;;;;;;;4988406;28;20536;-72
2021/07/05 01:41:55;;;;;;;5.90;1.60;;;;;;;;;;4988150;28;20117;-71
2021/07/05 01:44:20;;;;;;;5.07;1.90;;;;;;;;;;4988522;28;20022;-72
2021/07/05 01:46:46;;;;;;;3.55;1.60;;;;;;;;;;4985708;28;20513;-73
2021/07/05 01:49:12;;;;;;;4.18;1.67;;;;;;;;;;4976238;28;20626;-70
2021/07/05 01:51:37;;;;;;;8.75;1.15;;;;;;;;;;4984857;28;20046;-72
2021/07/05 01:54:04;;;;;;;6.28;1.60;;;;;;;;;;4988265;28;20400;-63
2021/07/05 01:56:30;;;;;;;4.07;1.65;;;;;;;;;;4989223;28;20113;-64
2021/07/05 01:58:56;;;;;;;4.55;1.80;;;;;;;;;;4986477;28;20044;-64
2021/07/05 02:01:22;;;;;;;6.80;1.70;;;;;;;;;;4993066;28;20033;-64
2021/07/05 02:03:47;;;;;;;4.25;1.60;;;;;;;;;;4993187;28;20489;-63
2021/07/05 02:06:13;;;;;;;9.60;1.50;;;;;;;;;;4985338;28;20408;-64
2021/07/05 02:08:38;;;;;;;8.48;1.80;;;;;;;;;;4987876;28;20042;-64
2021/07/05 02:11:04;;;;;;;6.38;1.55;;;;;;;;;;4987951;28;20108;-63
2021/07/05 02:13:33;;;;;;;8.90;1.63;;;;;;;;;;4990426;28;20046;-63
2021/07/05 02:16:00;;;;;;;10.50;2.85;;;;;;;;;;4986494;28;20490;-64
2021/07/05 02:18:27;;;;;;;7.68;1.67;;;;;;;;;;4988018;28;20034;-63
2021/07/05 02:20:55;;;;;;;6.35;1.45;;;;;;;;;;4987919;28;20080;-63
2021/07/05 02:23:22;;;;;;;3.47;1.60;;;;;;;;;;4987141;28;20058;-70
2021/07/05 02:25:49;;;;;;;9.90;1.55;;;;;;;;;;4985717;28;20450;-70
2021/07/05 02:28:17;;;;;;;17.65;1.70;;;;;;;;;;4987161;28;20374;-71
2021/07/05 02:30:45;;;;;;;6.70;1.50;;;;;;;;;;4986813;28;20032;-70
2021/07/05 02:33:12;;;;;;;7.72;1.88;;;;;;;;;;4986790;28;20090;-67
2021/07/05 02:35:37;;;;;;;7.68;1.70;;;;;;;;;;4998124;28;20038;-68
2021/07/05 02:38:08;;;;;;;13.10;1.75;;;;;;;;;;4997745;28;20052;-67
2021/07/05 02:40:37;;;;;;;11.10;1.80;;;;;;;;;;4997240;28;20021;-69
2021/07/05 02:43:03;;;;;;;7.20;2.05;;;;;;;;;;4991965;28;20066;-68
2021/07/05 02:45:31;;;;;;;8.30;1.92;;;;;;;;;;4995073;28;20026;-67
2021/07/05 02:48:03;;;;;;;13.63;2.55;;;;;;;;;;4993415;28;20401;-67
2021/07/05 02:50:29;;;;;;;9.30;1.42;;;;;;;;;;4990236;28;20504;-67
2021/07/05 02:52:55;;;;;;;12.77;1.67;;;;;;;;;;4986083;28;20042;-61
2021/07/05 02:55:21;;;;;;;7.13;1.55;;;;;;;;;;4986737;28;20228;-61
2021/07/05 02:57:48;;;;;;;10.00;1.15;;;;;;;;;;4990744;28;20416;-61
2021/07/05 03:00:28;;;;;;;6.78;2.30;;;;;;;;;;4990460;28;20464;-62
2021/07/05 03:02:54;;;;;;;14.05;2.53;;;;;;;;;;4991966;28;20026;-62
2021/07/05 03:05:25;;;;;;;11.20;2.50;;;;;;;;;;4988909;28;20023;-62
2021/07/05 03:07:50;;;;;;;13.05;2.03;;;;;;;;;;4993542;28;20037;-62
2021/07/05 03:10:28;;;;;;;8.38;2.10;;;;;;;;;;4987517;28;20022;-63
2021/07/05 03:12:55;;;;;;;16.35;1.75;;;;;;;;;;4993293;28;20026;-62
2021/07/05 03:15:21;;;;;;;8.55;1.90;;;;;;;;;;4989726;28;20101;-62
2021/07/05 03:17:47;;;;;;;7.55;1.42;;;;;;;;;;4990445;28;20042;-61
2021/07/05 03:20:16;;;;;;;14.07;2.08;;;;;;;;;;4993439;28;20509;-61
2021/07/05 03:22:44;;;;;;;9.77;2.22;;;;;;;;;;4993543;28;20046;-60
2021/07/05 03:25:11;;;;;;;9.35;1.92;;;;;;;;;;4998176;28;20030;-60
2021/07/05 03:27:37;;;;;;;8.25;1.80;;;;;;;;;;4994396;28;20038;-61
2021/07/05 03:30:05;;;;;;;19.60;3.22;;;;;;;;;;4996812;28;20048;-61
2021/07/05 03:32:31;;;;;;;11.05;1.55;;;;;;;;;;4997234;28;20528;-61
2021/07/05 03:34:56;;;;;;;15.73;2.92;;;;;;;;;;4993067;28;20121;-60
2021/07/05 03:37:22;;;;;;;17.17;2.67;;;;;;;;;;4992610;28;20030;-61
2021/07/05 03:39:48;;;;;;;8.55;1.98;;;;;;;;;;4994544;28;20049;-60
2021/07/05 03:42:13;;;;;;;15.90;1.83;;;;;;;;;;4991428;28;20421;-60
2021/07/05 03:44:39;;;;;;;10.20;1.52;;;;;;;;;;4987579;28;20022;-61
2021/07/05 03:47:04;;;;;;;14.75;2.05;;;;;;;;;;4974388;28;20496;-61
2021/07/05 03:49:30;;;;;;;15.10;1.92;;;;;;;;;;4990260;28;20050;-61
2021/07/05 03:51:55;;;;;;;9.68;1.75;;;;;;;;;;4970210;28;20045;-62
2021/07/05 03:54:21;;;;;;;8.00;1.60;;;;;;;;;;4990698;28;20240;-67
2021/07/05 03:56:47;;;;;;;14.88;1.73;;;;;;;;;;4988443;28;20041;-68
2021/07/05 03:59:12;;;;;;;10.93;1.98;;;;;;;;;;4988684;28;20065;-68
2021/07/05 04:01:38;;;;;;;13.25;1.67;;;;;;;;;;4988212;28;20037;-67
2021/07/05 04:04:04;;;;;;;6.65;1.55;;;;;;;;;;4993123;28;20084;-67
2021/07/05 04:06:29;;;;;;;10.00;2.05;;;;;;;;;;4990700;28;20065;-68
2021/07/05 04:08:57;;;;;;;12.27;1.88;;;;;;;;;;4990040;28;20034;-68
2021/07/05 04:11:23;;;;;;;10.57;2.05;;;;;;;;;;4988970;28;20034;-69
2021/07/05 04:13:49;;;;;;;10.85;1.90;;;;;;;;;;4997119;28;20036;-69
2021/07/05 04:16:14;;;;;;;10.50;2.03;;;;;;;;;;4995526;28;20037;-69
2021/07/05 04:18:40;;;;;;;7.38;1.90;;;;;;;;;;4994146;28;20041;-69
2021/07/05 04:21:06;;;;;;;7.85;1.60;;;;;;;;;;4975019;28;20038;-69
2021/07/05 04:23:31;;;;;;;9.68;1.70;;;;;;;;;;4975829;28;20046;-69
2021/07/05 04:25:59;;;;;;;13.02;2.50;;;;;;;;;;4990434;28;20045;-69
2021/07/05 04:28:25;;;;;;;14.15;2.80;;;;;;;;;;4989288;28;20042;-69
2021/07/05 04:30:51;;;;;;;12.00;1.92;;;;;;;;;;4987139;28;20096;-69
2021/07/05 04:33:16;;;;;;;16.50;2.20;;;;;;;;;;4991981;28;20497;-69
2021/07/05 04:35:42;;;;;;;9.25;1.65;;;;;;;;;;4988710;28;21616;-70
2021/07/05 04:38:08;;;;;;;8.05;1.95;;;;;;;;;;4987864;28;22384;-68
2021/07/05 04:40:36;;;;;;;8.93;1.85;;;;;;;;;;4989084;28;20126;-69
2021/07/05 04:43:03;;;;;;;14.90;2.20;;;;;;;;;;4990094;28;20467;-69
2021/07/05 04:45:30;;;;;;;6.97;2.05;;;;;;;;;;4990888;28;20402;-68
2021/07/05 04:47:58;;;;;;;9.15;2.50;;;;;;;;;;4992833;28;20037;-70
2021/07/05 04:50:24;;;;;;;6.75;2.35;;;;;;;;;;5002074;28;20033;-67
2021/07/05 04:52:49;;;;;;;11.05;2.47;;;;;;;;;;4991249;28;20080;-68
2021/07/05 04:55:18;;;;;;;7.43;1.67;;;;;;;;;;4991957;28;20042;-68
2021/07/05 04:57:45;;;;;;;17.63;2.08;;;;;;;;;;4994851;28;20133;-69
2021/07/05 05:00:14;;;;;;;10.73;1.80;;;;;;;;;;4993767;28;20140;-69
2021/07/05 05:02:41;;;;;;;9.63;2.47;;;;;;;;;;4997933;28;20058;-69
2021/07/05 05:05:08;;;;;;;7.63;1.65;;;;;;;;;;4992224;28;20030;-68
2021/07/05 05:07:35;;;;;;;8.38;2.10;;;;;;;;;;5005068;28;20553;-68
2021/07/05 05:10:01;;;;;;;12.90;2.22;;;;;;;;;;4988336;28;20121;-68
2021/07/05 05:12:28;;;;;;;11.13;1.90;;;;;;;;;;4987354;28;20034;-67
2021/07/05 05:14:55;;;;;;;10.27;1.60;;;;;;;;;;4988575;28;20620;-68
2021/07/05 05:17:20;;;;;;;5.72;1.70;;;;;;;;;;4989395;28;20083;-68
2021/07/05 05:19:46;;;;;;;6.60;1.70;;;;;;;;;;4985279;28;20042;-67
2021/07/05 05:22:12;;;;;;;9.00;1.73;;;;;;;;;;4988527;28;20259;-69
2021/07/05 05:24:37;;;;;;;13.15;2.63;;;;;;;;;;4989495;28;20131;-68
2021/07/05 05:27:03;;;;;;;12.68;1.90;;;;;;;;;;4989952;28;20034;-69
2021/07/05 05:29:29;;;;;;;14.23;1.95;;;;;;;;;;4988428;28;20026;-68
2021/07/05 05:31:54;;;;;;;8.65;1.90;;;;;;;;;;4988002;28;20402;-67
2021/07/05 05:34:20;;;;;;;9.65;1.90;;;;;;;;;;4989577;28;20041;-68
2021/07/05 05:36:45;;;;;;;8.73;1.45;;;;;;;;;;4995998;28;20050;-68
2021/07/05 05:39:11;;;;;;;14.88;2.20;;;;;;;;;;5002623;28;20037;-68
2021/07/05 05:41:36;;;;;;;10.98;1.80;;;;;;;;;;4993348;28;20030;-70
2021/07/05 05:44:02;;;;;;;6.65;1.50;;;;;;;;;;4986351;28;20030;-67
2021/07/05 05:46:29;;;;;;;13.07;1.60;;;;;;;;;;4986750;28;20033;-68
2021/07/05 05:48:55;;;;;;;8.65;1.70;;;;;;;;;;4987835;28;20037;-69
2021/07/05 05:51:21;;;;;;;7.90;1.80;;;;;;;;;;4987155;28;20030;-68
2021/07/05 05:53:46;;;;;;;9.82;2.05;;;;;;;;;;4986896;28;20370;-67
2021/07/05 05:56:12;;;;;;;8.73;1.70;;;;;;;;;;4988460;28;20073;-68
2021/07/05 05:58:40;;;;;;;13.35;1.55;;;;;;;;;;4986360;28;20039;-68
2021/07/05 06:01:06;;;;;;;7.18;1.45;;;;;;;;;;4984802;28;20137;-65
2021/07/05 06:03:32;;;;;;;12.82;1.60;;;;;;;;;;4984843;28;20038;-68
2021/07/05 06:05:58;;;;;;;11.73;1.55;;;;;;;;;;4985854;28;20038;-68
2021/07/05 06:08:24;;;;;;;8.88;1.63;;;;;;;;;;4983873;28;20030;-68
2021/07/05 06:10:49;;;;;;;7.28;1.67;;;;;;;;;;4986356;28;20037;-67
2021/07/05 06:13:15;;;;;;;11.38;1.92;;;;;;;;;;4990102;28;20530;-67
2021/07/05 06:15:40;;;;;;;9.50;1.50;;;;;;;;;;4984205;28;20057;-68
2021/07/05 06:18:06;;;;;;;13.80;1.52;;;;;;;;;;4985755;28;20034;-68
2021/07/05 06:20:31;;;;;;;10.18;1.98;;;;;;;;;;4983904;28;20026;-67
2021/07/05 06:22:57;;;;;;;14.52;1.50;;;;;;;;;;4986782;28;20055;-60
2021/07/05 06:25:23;;;;;;;9.68;2.03;;;;;;;;;;4985764;28;20034;-60
2021/07/05 06:27:49;;;;;;;9.75;1.90;;;;;;;;;;4988052;28;20073;-61
2021/07/05 06:30:15;;;;;;;8.50;1.40;;;;;;;;;;4988666;28;20309;-61
2021/07/05 06:32:42;;;;;;;11.10;1.60;;;;;;;;;;4989628;28;20038;-61
2021/07/05 06:35:08;;;;;;;12.70;2.17;;;;;;;;;;4994946;28;20069;-62
2021/07/05 06:37:34;;;;;;;15.65;1.77;;;;;;;;;;4989121;28;20034;-61
2021/07/05 06:40:00;;;;;;;9.15;1.58;;;;;;;;;;4987264;28;20097;-61
2021/07/05 06:42:25;;;;;;;7.22;2.10;;;;;;;;;;4992576;28;20048;-60
2021/07/05 06:44:51;;;;;;;8.88;1.63;;;;;;;;;;4991174;28;20058;-61
2021/07/05 06:47:16;;;;;;;15.40;1.58;;;;;;;;;;4997598;28;20117;-61
2021/07/05 06:49:43;;;;;;;10.25;1.67;;;;;;;;;;4995977;28;20034;-61
2021/07/05 06:52:08;;;;;;;8.27;1.33;;;;;;;;;;4992122;28;20035;-62
2021/07/05 06:54:34;;;;;;;9.77;1.48;;;;;;;;;;4992632;28;20303;-69
2021/07/05 06:57:00;;;;;;;9.32;1.38;;;;;;;;;;4991934;28;20508;-67
2021/07/05 06:59:25;;;;;;;14.50;1.65;;;;;;;;;;4989706;28;20042;-68
2021/07/05 07:01:51;;;;;;;9.90;2.20;;;;;;;;;;4990297;28;20397;-66
2021/07/05 07:04:16;;;;;;;7.93;1.50;;;;;;;;;;4993675;28;20050;-67
2021/07/05 07:06:42;;;;;;;12.68;1.73;;;;;;;;;;4992374;28;20057;-67
2021/07/05 07:09:07;;;;;;;9.40;1.40;;;;;;;;;;4986557;28;21232;-66
2021/07/05 07:11:33;;;;;;;11.35;2.08;;;;;;;;;;4988204;28;20127;-68
2021/07/05 07:13:59;;;;;;;6.82;1.23;;;;;;;;;;4986386;28;20081;-68
2021/07/05 07:16:28;;;;;;;5.28;1.00;;;;;;;;;;4987767;28;20037;-67
2021/07/05 07:19:26;;;;;;;11.88;1.80;;;;;;;;;;4988543;28;20038;-67
2021/07/05 07:21:47;;;;;;;8.25;1.63;;;;;;;;;;4994456;28;20489;-67
2021/07/05 07:24:13;;;;;;;8.35;0.95;;;;;;;;;;4995356;28;20088;-68
2021/07/05 07:26:39;;;;;;;7.90;1.30;;;;;;;;;;4998569;28;20026;-69
2021/07/05 07:29:04;;;;;;;7.72;1.63;;;;;;;;;;4993664;28;20030;-67
2021/07/05 07:31:30;;;;;;;7.35;1.27;;;;;;;;;;4990283;28;20589;-66
2021/07/05 07:33:56;;;;;;;6.88;0.90;;;;;;;;;;4990386;28;20038;-68
2021/07/05 07:36:22;;;;;;;6.82;2.00;;;;;;;;;;4991759;28;20525;-67
2021/07/05 07:38:51;;;;;;;13.75;1.17;;;;;;;;;;4990357;28;20125;-67
2021/07/05 07:41:21;;;;;;;10.82;1.30;;;;;;;;;;4991320;28;20112;-67
2021/07/05 07:43:47;;;;;;;6.45;1.50;;;;;;;;;;4991824;28;20037;-66
2021/07/05 07:46:12;;;;;;;8.43;1.90;;;;;;;;;;4991001;28;20022;-67
2021/07/05 07:48:38;;;;;;;6.25;1.25;;;;;;;;;;4992501;28;20085;-68
2021/07/05 07:51:03;;;;;;;9.20;1.20;;;;;;;;;;4989376;28;20037;-67
2021/07/05 07:53:29;;;;;;;9.88;1.30;;;;;;;;;;4992915;28;20026;-68
2021/07/05 07:55:54;;;;;;;12.50;1.63;;;;;;;;;;4992023;28;20053;-67
2021/07/05 07:58:20;;;;;;;6.75;1.20;;;;;;;;;;4994246;28;20886;-68
2021/07/05 08:00:45;;;;;;;6.78;1.13;;;;;;;;;;4996053;28;20069;-68
2021/07/05 08:03:12;;;;;;;10.23;1.45;;;;;;;;;;5007112;28;20034;-67
2021/07/05 08:05:38;;;;;;;10.57;1.30;;;;;;;;;;4997473;28;20026;-66
2021/07/05 08:08:05;;;;;;;9.52;1.00;;;;;;;;;;4995798;28;20520;-67
2021/07/05 08:10:31;;;;;;;6.68;1.38;;;;;;;;;;4988359;28;20030;-67
2021/07/05 08:12:57;;;;;;;6.93;1.38;;;;;;;;;;4991722;28;20029;-67
2021/07/05 08:15:23;;;;;;;8.45;1.35;;;;;;;;;;4991915;28;20034;-67
2021/07/05 08:17:49;;;;;;;4.85;1.10;;;;;;;;;;4993579;28;20099;-68
2021/07/05 08:20:21;;;;;;;7.00;1.58;;;;;;;;;;4991235;28;20038;-66
2021/07/05 08:22:47;;;;;;;8.27;1.30;;;;;;;;;;4989921;28;20046;-68
2021/07/05 08:25:13;;;;;;;7.85;1.20;;;;;;;;;;4989358;28;20117;-67
2021/07/05 08:27:38;;;;;;;12.82;1.65;;;;;;;;;;4988749;28;20042;-67
2021/07/05 08:30:05;;;;;;;10.20;1.27;;;;;;;;;;4992642;28;20473;-67
2021/07/05 08:32:31;;;;;;;6.90;1.30;;;;;;;;;;4992092;28;20116;-67
2021/07/05 08:34:57;;;;;;;8.35;1.20;;;;;;;;;;4989189;28;20121;-67
2021/07/05 08:37:22;;;;;;;5.40;1.05;;;;;;;;;;4992396;28;20026;-68
2021/07/05 08:39:48;;;;;;;8.13;0.90;;;;;;;;;;4995113;28;20046;-68
2021/07/05 08:42:16;;;;;;;7.32;1.38;;;;;;;;;;4997081;28;20034;-68
2021/07/05 08:44:41;;;;;;;7.85;1.08;;;;;;;;;;4991939;28;20105;-66
2021/07/05 08:47:08;;;;;;;5.68;1.15;;;;;;;;;;4988375;28;20105;-67
2021/07/05 08:49:34;;;;;;;7.55;1.83;;;;;;;;;;4987273;28;20030;-67
2021/07/05 08:51:59;;;;;;;6.50;1.02;;;;;;;;;;4989780;28;20876;-67
2021/07/05 08:54:25;;;;;;;7.63;1.20;;;;;;;;;;4991372;28;20033;-68
2021/07/05 08:56:50;;;;;;;4.85;1.38;;;;;;;;;;4990255;28;20042;-67
2021/07/05 08:59:16;;;;;;;16.40;3.00;;;;;;;;;;4988454;28;20034;-67
2021/07/05 09:01:42;;;;;;;5.28;1.20;;;;;;;;;;4991660;28;20037;-67
2021/07/05 09:04:11;;;;;;;6.15;1.63;;;;;;;;;;4988053;28;20451;-68
2021/07/05 09:06:38;;;;;;;7.10;1.65;;;;;;;;;;4989515;28;20045;-67
2021/07/05 09:09:07;;;;;;;7.53;2.15;;;;;;;;;;4987749;28;20040;-66
2021/07/05 09:11:49;;;;;;;7.80;1.58;;;;;;;;;;4987426;28;20033;-67
2021/07/05 09:14:18;;;;;;;12.83;1.50;;;;;;;;;;4990964;28;20125;-67
2021/07/05 09:16:45;;;;;;;10.27;1.67;;;;;;;;;;4998816;28;20280;-66
2021/07/05 09:19:15;;;;;;;6.20;1.13;;;;;;;;;;4999603;28;20053;-67
2021/07/05 09:21:46;;;;;;;6.05;1.10;;;;;;;;;;4995331;28;20036;-67
2021/07/05 09:24:11;;;;;;;6.82;1.45;;;;;;;;;;4990841;28;20343;-67
2021/07/05 09:26:40;;;;;;;6.20;0.90;;;;;;;;;;4988131;28;20495;-66
2021/07/05 09:29:21;;;;;;;7.85;1.88;;;;;;;;;;4992012;28;20041;-66
2021/07/05 09:31:48;;;;;;;9.23;1.00;;;;;;;;;;4993727;28;20045;-67
2021/07/05 09:34:23;;;;;;;6.15;1.40;;;;;;;;;;4991537;28;20355;-59
2021/07/05 09:36:53;;;;;;;5.85;0.85;;;;;;;;;;4987664;28;20437;-59
2021/07/05 09:39:21;;;;;;;4.50;0.77;;;;;;;;;;4987397;28;20048;-60
2021/07/05 09:41:48;;;;;;;7.22;1.30;;;;;;;;;;4992930;28;20030;-60
2021/07/05 09:44:20;;;;;;;3.58;0.90;;;;;;;;;;4989815;28;20043;-58
2021/07/05 09:46:57;;;;;;;6.97;1.13;;;;;;;;;;4990930;28;20030;-59
2021/07/05 09:49:29;;;;;;;4.10;0.90;;;;;;;;;;4987349;28;20034;-60
2021/07/05 09:52:14;;;;;;;4.63;1.10;;;;;;;;;;4988447;28;20053;-59
2021/07/05 09:54:45;;;;;;;3.97;0.80;;;;;;;;;;4991213;28;20084;-59
2021/07/05 09:57:30;;;;;;;6.30;0.77;;;;;;;;;;4994061;28;20052;-59
2021/07/05 10:00:22;;;;;;;5.00;1.15;;;;;;;;;;4997281;28;20042;-59
2021/07/05 10:03:00;;;;;;;9.88;1.40;;;;;;;;;;4990505;28;20032;-67
2021/07/05 10:05:33;;;;;;;2.80;0.50;;;;;;;;;;4987357;28;20091;-67
2021/07/05 10:08:02;;;;;;;5.38;0.75;;;;;;;;;;4989916;28;20045;-67
2021/07/05 10:10:28;;;;;;;8.57;0.80;;;;;;;;;;4988468;28;20034;-67
2021/07/05 10:13:06;;;;;;;4.47;0.70;;;;;;;;;;4987878;28;20022;-67
2021/07/05 10:15:32;;;;;;;6.82;1.08;;;;;;;;;;4986197;28;20515;-67
2021/07/05 10:17:58;;;;;;;7.15;0.70;;;;;;;;;;4986797;28;20105;-67
2021/07/05 10:20:25;;;;;;;4.30;0.65;;;;;;;;;;4988179;28;20179;-68
2021/07/05 10:22:54;;;;;;;4.72;0.50;;;;;;;;;;4987016;28;20054;-66
2021/07/05 10:25:21;;;;;;;6.65;0.95;;;;;;;;;;4991817;28;20168;-67
2021/07/05 10:27:47;;;;;;;2.33;0.65;;;;;;;;;;4987947;28;20045;-67
2021/07/05 10:30:15;;;;;;;4.72;0.60;;;;;;;;;;4974802;28;20034;-68
2021/07/05 10:32:41;;;;;;;6.07;0.68;;;;;;;;;;4992781;28;20026;-67
2021/07/05 10:35:09;;;;;;;4.13;0.65;;;;;;;;;;4992380;28;20027;-67
2021/07/05 10:37:45;;;;;;;4.18;0.73;;;;;;;;;;4993414;28;20041;-67
2021/07/05 10:40:11;;;;;;;7.97;0.88;;;;;;;;;;4990049;28;20053;-68
2021/07/05 10:42:42;;;;;;;5.68;0.85;;;;;;;;;;4989439;28;20066;-68
2021/07/05 10:45:15;;;;;;;5.30;0.73;;;;;;;;;;4997381;28;20030;-68
2021/07/05 10:47:53;;;;;;;4.20;0.57;;;;;;;;;;4989093;28;20027;-69
2021/07/05 10:50:49;;;;;;;3.78;0.70;;;;;;;;;;4985936;28;20033;-68
2021/07/05 10:53:19;;;;;;;3.47;0.68;;;;;;;;;;4986449;28;20034;-68
2021/07/05 10:55:53;;;;;;;2.63;0.90;;;;;;;;;;4989613;28;20092;-68
2021/07/05 10:58:26;;;;;;;7.68;0.60;;;;;;;;;;4988194;28;20052;-67
2021/07/05 11:01:00;;;;;;;2.63;0.60;;;;;;;;;;4991443;28;20565;-68
2021/07/05 11:03:38;;;;;;;3.83;0.40;;;;;;;;;;4997000;28;20103;-67
2021/07/05 11:06:09;;;;;;;5.07;0.52;;;;;;;;;;4990700;28;20448;-67
2021/07/05 11:08:49;;;;;;;4.40;0.60;;;;;;;;;;4991404;28;20034;-67
2021/07/05 11:11:25;;;;;;;4.60;0.65;;;;;;;;;;4985902;28;20042;-67
2021/07/05 11:14:20;;;;;;;2.88;0.50;;;;;;;;;;4987994;28;20581;-69
2021/07/05 11:17:03;;;;;;;2.58;0.68;;;;;;;;;;4986310;28;20052;-68
2021/07/05 11:19:54;;;;;;;4.18;0.88;;;;;;;;;;4989881;28;20060;-68
2021/07/05 11:22:38;;;;;;;1.70;0.50;;;;;;;;;;4993066;28;20521;-68
2021/07/05 11:25:19;;;;;;;1.75;0.55;;;;;;;;;;4991778;28;20122;-67
2021/07/05 11:27:58;;;;;;;2.72;0.65;;;;;;;;;;4995037;28;20030;-67
2021/07/05 11:30:29;;;;;;;3.40;0.50;;;;;;;;;;4990101;28;20313;-68
2021/07/05 11:33:15;;;;;;;3.45;0.68;;;;;;;;;;4990496;28;20034;-68
2021/07/05 11:35:40;;;;;;;5.32;0.65;;;;;;;;;;4994730;28;20058;-68
2021/07/05 11:38:29;;;;;;;3.75;0.68;;;;;;;;;;4990770;28;20096;-68
2021/07/05 11:41:14;;;;;;;4.15;0.82;;;;;;;;;;4997869;28;20115;-67
2021/07/05 11:44:10;;;;;;;6.03;0.70;;;;;;;;;;4993560;28;20038;-68
2021/07/05 11:46:35;;;;;;;1.38;0.55;;;;;;;;;;5000968;28;20061;-68
2021/07/05 11:49:06;;;;;;;2.78;0.77;;;;;;;;;;4999353;28;20080;-69
2021/07/05 11:51:33;;;;;;;2.47;0.70;;;;;;;;;;5001229;28;20038;-67
2021/07/05 11:54:05;;;;;;;5.28;0.65;;;;;;;;;;4992013;28;20323;-68
2021/07/05 11:56:36;;;;;;;3.10;0.73;;;;;;;;;;4994137;28;20060;-69
2021/07/05 11:59:05;;;;;;;4.43;0.68;;;;;;;;;;4991445;28;20076;-68
2021/07/05 12:01:32;;;;;;;1.85;0.50;;;;;;;;;;4990202;28;20068;-67
2021/07/05 12:03:59;;;;;;;4.22;0.80;;;;;;;;;;4990673;28;20022;-68
2021/07/05 12:06:26;;;;;;;2.95;0.60;;;;;;;;;;4989760;28;20042;-67
2021/07/05 12:08:52;;;;;;;2.25;0.63;;;;;;;;;;4992667;28;20353;-68
2021/07/05 12:11:37;;;;;;;2.90;0.73;;;;;;;;;;4990703;28;20245;-69
2021/07/05 12:14:12;;;;;;;2.70;0.70;;;;;;;;;;4995134;28;20145;-69
2021/07/05 12:16:39;;;;;;;2.60;0.68;;;;;;;;;;4989568;28;20034;-68
2021/07/05 12:19:08;;;;;;;4.65;0.60;;;;;;;;;;4990483;28;20034;-69
2021/07/05 12:21:36;;;;;;;3.88;0.70;;;;;;;;;;4992004;28;20109;-68
2021/07/05 12:24:26;;;;;;;2.17;0.50;;;;;;;;;;4993557;28;20041;-68
2021/07/05 12:27:03;;;;;;;2.22;0.43;;;;;;;;;;4996494;28;20042;-68
2021/07/05 12:29:49;;;;;;;2.65;0.60;;;;;;;;;;4994100;28;20030;-67
2021/07/05 12:32:21;;;;;;;3.90;0.40;;;;;;;;;;4993717;28;20338;-68
2021/07/05 12:34:47;;;;;;;4.40;0.50;;;;;;;;;;4987604;28;20038;-68
2021/07/05 12:37:21;;;;;;;6.28;0.55;;;;;;;;;;4993084;28;20034;-68
2021/07/05 12:39:58;;;;;;;2.05;0.65;;;;;;;;;;4989517;28;20092;-69
2021/07/05 12:42:29;;;;;;;4.07;0.50;;;;;;;;;;4989849;28;20520;-68
2021/07/05 12:44:56;;;;;;;2.20;0.50;;;;;;;;;;5000374;28;20116;-65
2021/07/05 12:47:22;;;;;;;1.75;0.60;;;;;;;;;;4991166;28;20034;-68
2021/07/05 12:49:50;;;;;;;2.20;0.40;;;;;;;;;;4990206;28;20037;-67
2021/07/05 12:52:16;;;;;;;4.05;0.57;;;;;;;;;;4990378;28;20420;-67
2021/07/05 12:54:42;;;;;;;3.42;0.43;;;;;;;;;;4988533;28;20018;-68
2021/07/05 12:57:16;;;;;;;1.50;0.40;;;;;;;;;;4989018;28;20394;-68
2021/07/05 13:00:01;;;;;;;5.78;0.40;;;;;;;;;;4989090;28;20143;-68
2021/07/05 13:02:29;;;;;;;3.40;0.80;;;;;;;;;;4989015;28;20026;-60
2021/07/05 13:05:10;;;;;;;2.30;0.43;;;;;;;;;;4996204;28;20033;-60
2021/07/05 13:07:37;;;;;;;2.17;0.47;;;;;;;;;;4992424;28;20033;-59
2021/07/05 13:10:08;;;;;;;2.28;0.30;;;;;;;;;;4973480;28;20220;-59
2021/07/05 13:12:35;;;;;;;3.85;0.52;;;;;;;;;;4988836;28;20046;-59
2021/07/05 13:15:17;;;;;;;3.88;0.50;;;;;;;;;;4990191;28;20077;-59
2021/07/05 13:17:44;;;;;;;;;;;;;;;;;;4990052;28;20037;-59
2021/07/05 13:20:15;;;;;;;1.02;0.30;;;;;;;;;;4989821;28;20004;-60
2021/07/05 13:22:56;;;;;;;3.20;0.55;;;;;;;;;;4989169;28;20050;-59
2021/07/05 13:25:23;;;;;;;2.05;0.40;;;;;;;;;;4989138;28;20370;-58
2021/07/05 13:27:49;;;;;;;1.45;0.60;;;;;;;;;;4990075;28;20434;-59
2021/07/05 13:30:20;;;;;;;1.85;0.50;;;;;;;;;;4987869;28;20113;-58
2021/07/05 13:32:52;;;;;;;1.37;0.40;;;;;;;;;;4987841;28;20034;-67
2021/07/05 13:35:17;;;;;;;4.10;0.70;;;;;;;;;;4988368;28;20287;-66
2021/07/05 13:37:46;;;;;;;5.50;0.40;;;;;;;;;;4990553;28;20110;-67
2021/07/05 13:40:17;;;;;;;1.92;0.40;;;;;;;;;;4998484;28;20033;-66
2021/07/05 13:42:49;;;;;;;4.28;0.50;;;;;;;;;;4997992;28;20037;-67
2021/07/05 13:45:19;;;;;;;;;;;;;;;;;;4999161;28;20428;-67
2021/07/05 13:47:59;;;;;;;3.20;0.50;;;;;;;;;;4997992;28;19984;-67
2021/07/05 13:50:25;;;;;;;1.25;0.40;;;;;;;;;;4987845;28;20030;-67
2021/07/05 13:52:55;;;;;;;2.58;0.40;;;;;;;;;;4991051;28;20055;-67
2021/07/05 13:55:30;;;;;;;2.47;0.50;;;;;;;;;;4989998;28;20026;-67
2021/07/05 13:58:05;;;;;;;1.13;0.40;;;;;;;;;;4990616;28;20628;-67
2021/07/05 14:00:34;;;;;;;1.42;0.40;;;;;;;;;;4990615;28;20033;-67
2021/07/05 14:03:00;;;;;;;2.33;0.50;;;;;;;;;;4988955;28;20065;-66
2021/07/05 14:05:32;;;;;;;4.05;0.50;;;;;;;;;;4989553;28;20113;-66
2021/07/05 14:07:59;;;;;;;2.67;0.60;;;;;;;;;;4990468;28;20046;-67
2021/07/05 14:10:25;;;;;;;1.80;0.40;;;;;;;;;;4987651;28;20366;-66
2021/07/05 14:12:54;;;;;;;1.27;0.40;;;;;;;;;;4989188;28;20060;-66
2021/07/05 14:15:20;;;;;;;1.75;0.30;;;;;;;;;;4988532;28;20037;-66
2021/07/05 14:17:46;;;;;;;2.50;0.50;;;;;;;;;;4989199;28;20457;-66
2021/07/05 14:20:13;;;;;;;0.63;0.40;;;;;;;;;;4999386;28;20169;-66
2021/07/05 14:22:38;;;;;;;0.63;0.30;;;;;;;;;;4992002;28;20054;-66
2021/07/05 14:25:07;;;;;;;2.20;0.25;;;;;;;;;;4991077;28;20493;-66
2021/07/05 14:27:33;;;;;;;3.92;0.22;;;;;;;;;;4991376;28;20745;-66
2021/07/05 14:30:00;;;;;;;1.60;0.50;;;;;;;;;;4990119;28;20121;-67
2021/07/05 14:32:26;;;;;;;1.20;0.30;;;;;;;;;;4988916;28;20030;-65
2021/07/05 14:34:51;;;;;;;3.72;0.30;;;;;;;;;;4985883;28;20038;-66
2021/07/05 14:37:16;;;;;;;0.85;0.35;;;;;;;;;;4986941;28;20057;-66
2021/07/05 14:39:42;;;;;;;1.95;0.35;;;;;;;;;;4989107;28;20038;-66
2021/07/05 14:42:08;;;;;;;2.80;0.55;;;;;;;;;;4985972;28;20421;-66
2021/07/05 14:44:33;;;;;;;2.58;0.30;;;;;;;;;;4988161;28;20497;-66
2021/07/05 14:46:59;;;;;;;1.77;0.47;;;;;;;;;;4987007;28;20038;-66
2021/07/05 14:49:24;;;;;;;5.35;0.98;;;;;;;;;;4988127;28;20045;-66